• Join FlightAware (Why Join?)
  • Login
  • US Flag GB Flag 
22:43 EDT


 

Airport Tracker/Info


-or-


 

Live Flight TrackerFlight Track Log ✈ UAL4336 ✈ 12-Apr-2013 ✈ KIAH - KBTR

Flight Track Log - Related Links

Times and Time Zones

All times are in EDT time to prevent confusion due to time zone crossing. See the UAL4336 flight status page for this flight to view local times or setup timezone preferences in your user account.

Time Position Orientation Groundspeed Altitude Reporting Facility
EDT Latitude Longitude Course Direction KTS MPH feet Rate Location/Type
10:05 29.9775 -95.3103 90° East 156 180 700  Level Houston Center
10:07 29.9572 -95.2236 105° East 196 226 3,700 1,620 Climbing Houston Center
10:08 29.9439 -95.1414 101° East 256 295 4,800 1,740 Climbing Houston Center
10:09 29.9833 -94.8604 90° East  Level FlightAware Approximate
10:09 29.9508 -95.0539 85° East 271 312 7,300  Level Houston Center
10:10 29.9834 -94.7422 90° East  Level FlightAware Approximate
10:10 29.9550 -94.9639 87° East 279 321 10,100  Level Houston Center
10:11 29.9625 -94.8608 85° East 313 360 11,000 900 Climbing Houston Center
10:12 29.9703 -94.7403 86° East 363 418 12,000 1,320 Climbing Houston Center
10:13 29.9786 -94.6158 86° East 385 443 13,800 1,800 Climbing Houston Center
10:14 29.9886 -94.4606 86° East 395 455 15,800 1,680 Climbing Houston Center
10:15 29.9931 -94.3344 88° East 396 456 17,300 1,320 Climbing Houston Center
10:16 30.0089 -94.2047 82° East 405 466 18,600 1,020 Climbing Houston Center
10:17 30.0261 -94.0736 81° East 412 474 19,500 720 Climbing Houston Center
10:18 30.0425 -93.9319 82° East 445 512 20,200 900 Climbing Houston Center
10:19 30.0633 -93.7608 82° East 449 517 21,400 960 Climbing Houston Center
10:20 30.0803 -93.6144 82° East 457 526 22,300 720 Climbing Houston Center
10:21 30.0975 -93.4647 82° East 474 545 22,900 300 Climbing Houston Center
10:22 30.1164 -93.3114 82° East 487 560 23,000  Climbing Houston Center
10:23 30.1347 -93.1528 82° East 501 577 23,000  Level Houston Center
10:24 30.1678 -92.9653 78° East 500 575 23,000 -60 Level Houston Center
10:25 30.1986 -92.8108 77° East 496 571 22,900 -540 Descending Houston Center
10:26 30.2286 -92.6564 77° East 497 572 22,000 -1,500 Descending Houston Center
10:27 30.2575 -92.5058 77° East 483 556 19,800 -2,280 Descending Houston Center
10:28 30.2850 -92.3628 77° East 462 532 17,400 -2,280 Descending Houston Center
10:29 30.3142 -92.2078 78° East 438 504 15,200 -1,980 Descending Houston Center
10:30 30.3392 -92.0800 77° East 417 480 13,300 -1,620 Descending Houston Center
10:31 30.3606 -91.9628 78° East 389 448 11,900 -1,080 Descending Houston Center
10:32 30.3883 -91.8219 77° East 379 436 11,100 -540 Descending Houston Center
10:33 30.4064 -91.7203 78° East 376 433 10,900 -660 Descending Houston Center
10:34 30.4697 -91.6192 54° Northeast 327 376 9,800 -1,140 Descending Houston Center
10:36 30.5214 -91.5578 46° Northeast 297 342 8,600 -1,320 Descending Houston Center
10:37 30.5700 -91.4981 47° Northeast 270 311 7,100 -1,620 Descending Houston Center
10:38 30.6258 -91.4300 46° Northeast 251 289 5,300 -1,560 Descending Houston Center
10:39 30.6192 -91.3567 96° East 261 300 3,900 -1,380 Descending Houston Center